createdAt,value
2022-12-01T00:00:59.000Z,1.98
2022-12-01T00:01:59.000Z,1.99
2022-12-01T00:02:59.000Z,1.98
2022-12-01T00:03:59.000Z,1.98
2022-12-01T00:04:59.000Z,1.99
2022-12-01T00:05:59.000Z,1.97
2022-12-01T00:06:59.000Z,1.99
2022-12-01T00:07:59.000Z,1.93
2022-12-01T00:08:59.000Z,1.98
2022-12-01T00:09:59.000Z,1.98
2022-12-01T00:10:59.000Z,1.98
2022-12-01T00:11:59.000Z,2.01
2022-12-01T00:12:59.000Z,1.98
2022-12-01T00:13:59.000Z,1.94
2022-12-01T00:14:59.000Z,1.94
2022-12-01T00:15:59.000Z,1.94
2022-12-01T00:16:59.000Z,1.94
2022-12-01T00:17:59.000Z,1.93
2022-12-01T00:18:59.000Z,1.94
2022-12-01T00:19:59.000Z,1.91
2022-12-01T00:20:59.000Z,1.94
2022-12-01T00:21:59.000Z,1.97
2022-12-01T00:22:59.000Z,1.91
2022-12-01T00:23:59.000Z,1.90
2022-12-01T00:24:59.000Z,1.89
2022-12-01T00:25:59.000Z,1.85
2022-12-01T00:26:59.000Z,1.85
2022-12-01T00:27:59.000Z,1.82
2022-12-01T00:28:59.000Z,1.83
2022-12-01T00:29:59.000Z,1.80
2022-12-01T00:30:59.000Z,1.78
2022-12-01T00:31:59.000Z,1.78
2022-12-01T00:32:59.000Z,1.79
2022-12-01T00:33:59.000Z,1.76
2022-12-01T00:34:59.000Z,1.80
2022-12-01T00:35:59.000Z,1.78
2022-12-01T00:36:59.000Z,1.79
2022-12-01T00:37:59.000Z,1.80
2022-12-01T00:38:59.000Z,1.80
2022-12-01T00:39:59.000Z,1.80
2022-12-01T00:40:59.000Z,1.76
2022-12-01T00:41:59.000Z,1.73
2022-12-01T00:42:59.000Z,1.73
2022-12-01T00:43:59.000Z,1.73
2022-12-01T00:44:59.000Z,1.75
2022-12-01T00:45:59.000Z,1.76
2022-12-01T00:46:59.000Z,1.75
2022-12-01T00:47:59.000Z,1.75
2022-12-01T00:48:59.000Z,1.73
2022-12-01T00:49:59.000Z,1.71
2022-12-01T00:50:59.000Z,1.68
2022-12-01T00:51:59.000Z,1.68
2022-12-01T00:52:59.000Z,1.68
2022-12-01T00:53:59.000Z,1.71
2022-12-01T00:54:59.000Z,1.73
2022-12-01T00:55:59.000Z,1.73
2022-12-01T00:56:59.000Z,1.68
2022-12-01T00:57:59.000Z,1.68
2022-12-01T00:58:59.000Z,1.68
2022-12-01T00:59:59.000Z,1.65
2022-12-01T01:00:59.000Z,1.65
2022-12-01T01:01:59.000Z,1.61
2022-12-01T01:02:59.000Z,1.62
2022-12-01T01:03:59.000Z,1.65
2022-12-01T01:04:59.000Z,1.61
2022-12-01T01:05:59.000Z,1.62
2022-12-01T01:06:59.000Z,1.61
2022-12-01T01:07:59.000Z,1.62
2022-12-01T01:08:59.000Z,1.65
2022-12-01T01:09:59.000Z,1.60
2022-12-01T01:10:59.000Z,1.62
2022-12-01T01:11:59.000Z,1.58
2022-12-01T01:12:59.000Z,1.55
2022-12-01T01:13:59.000Z,1.57
2022-12-01T01:14:59.000Z,1.57
2022-12-01T01:15:59.000Z,1.58
2022-12-01T01:16:59.000Z,1.60
2022-12-01T01:17:59.000Z,1.58
2022-12-01T01:18:59.000Z,1.60
2022-12-01T01:19:59.000Z,1.60
2022-12-01T01:20:59.000Z,1.60
2022-12-01T01:21:59.000Z,1.58
2022-12-01T01:22:59.000Z,1.55
2022-12-01T01:23:59.000Z,1.60
2022-12-01T01:24:59.000Z,1.61
2022-12-01T01:25:59.000Z,1.61
2022-12-01T01:26:59.000Z,1.58
2022-12-01T01:27:59.000Z,1.60
2022-12-01T01:28:59.000Z,1.60
2022-12-01T01:29:59.000Z,1.57
2022-12-01T01:30:59.000Z,1.55
2022-12-01T01:31:59.000Z,1.51
2022-12-01T01:32:59.000Z,1.57
2022-12-01T01:33:59.000Z,1.54
2022-12-01T01:34:59.000Z,1.52
2022-12-01T01:35:59.000Z,1.54
2022-12-01T01:36:59.000Z,1.50
2022-12-01T01:37:59.000Z,1.50
2022-12-01T01:38:59.000Z,1.52
2022-12-01T01:39:59.000Z,1.50
2022-12-01T01:40:59.000Z,1.51
2022-12-01T01:41:59.000Z,1.47
2022-12-01T01:42:59.000Z,1.50
2022-12-01T01:43:59.000Z,1.51
2022-12-01T01:44:59.000Z,1.51
2022-12-01T01:45:59.000Z,1.54
2022-12-01T01:46:59.000Z,1.52
2022-12-01T01:47:59.000Z,1.51
2022-12-01T01:48:59.000Z,1.54
2022-12-01T01:49:59.000Z,1.52
2022-12-01T01:50:59.000Z,1.54
2022-12-01T01:51:59.000Z,1.54
2022-12-01T01:52:59.000Z,1.55
2022-12-01T01:53:59.000Z,1.52
2022-12-01T01:54:59.000Z,1.52
2022-12-01T01:55:59.000Z,1.51
2022-12-01T01:56:59.000Z,1.47
2022-12-01T01:57:59.000Z,1.46
2022-12-01T01:58:59.000Z,1.44
2022-12-01T01:59:59.000Z,1.42
2022-12-01T02:00:59.000Z,1.44
2022-12-01T02:01:59.000Z,1.43
2022-12-01T02:02:59.000Z,1.44
2022-12-01T02:03:59.000Z,1.42
2022-12-01T02:04:59.000Z,1.44
2022-12-01T02:05:59.000Z,1.46
2022-12-01T02:06:59.000Z,1.50
2022-12-01T02:07:59.000Z,1.47
2022-12-01T02:08:59.000Z,1.52
2022-12-01T02:09:59.000Z,1.54
2022-12-01T02:10:59.000Z,1.52
2022-12-01T02:11:59.000Z,1.51
2022-12-01T02:12:59.000Z,1.51
2022-12-01T02:13:59.000Z,1.51
2022-12-01T02:14:59.000Z,1.54
2022-12-01T02:15:59.000Z,1.54
2022-12-01T02:16:59.000Z,1.52
2022-12-01T02:17:59.000Z,1.51
2022-12-01T02:18:59.000Z,1.50
2022-12-01T02:19:59.000Z,1.54
2022-12-01T02:20:59.000Z,1.50
2022-12-01T02:21:59.000Z,1.50
2022-12-01T02:22:59.000Z,1.52
2022-12-01T02:23:59.000Z,1.50
2022-12-01T02:24:59.000Z,1.47
2022-12-01T02:25:59.000Z,1.50
2022-12-01T02:26:59.000Z,1.47
2022-12-01T02:27:59.000Z,1.50
2022-12-01T02:28:59.000Z,1.44
2022-12-01T02:29:59.000Z,1.46
2022-12-01T02:30:59.000Z,1.43
2022-12-01T02:31:59.000Z,1.43
2022-12-01T02:32:59.000Z,1.42
2022-12-01T02:33:59.000Z,1.40
2022-12-01T02:34:59.000Z,1.43
2022-12-01T02:35:59.000Z,1.42
2022-12-01T02:36:59.000Z,1.44
2022-12-01T02:37:59.000Z,1.44
2022-12-01T02:38:59.000Z,1.42
2022-12-01T02:39:59.000Z,1.42
2022-12-01T02:40:59.000Z,1.46
2022-12-01T02:41:59.000Z,1.43
2022-12-01T02:42:59.000Z,1.43
2022-12-01T02:43:59.000Z,1.44
2022-12-01T02:44:59.000Z,1.42
2022-12-01T02:45:59.000Z,1.43
2022-12-01T02:46:59.000Z,1.43
2022-12-01T02:47:59.000Z,1.43
2022-12-01T02:48:59.000Z,1.40
2022-12-01T02:49:59.000Z,1.40
2022-12-01T02:50:59.000Z,1.42
2022-12-01T02:51:59.000Z,1.40
2022-12-01T02:52:59.000Z,1.44
2022-12-01T02:53:59.000Z,1.39
2022-12-01T02:54:59.000Z,1.37
2022-12-01T02:55:59.000Z,1.36
2022-12-01T02:56:59.000Z,1.37
2022-12-01T02:57:59.000Z,1.37
2022-12-01T02:58:59.000Z,1.36
2022-12-01T02:59:59.000Z,1.32
2022-12-01T03:00:59.000Z,1.26
2022-12-01T03:01:59.000Z,1.28
2022-12-01T03:02:59.000Z,1.22
2022-12-01T03:03:59.000Z,1.24
2022-12-01T03:04:59.000Z,1.25
2022-12-01T03:05:59.000Z,1.24
2022-12-01T03:06:59.000Z,1.24
2022-12-01T03:07:59.000Z,1.19
2022-12-01T03:08:59.000Z,1.25
2022-12-01T03:09:59.000Z,1.22
2022-12-01T03:10:59.000Z,1.22
2022-12-01T03:11:59.000Z,1.24
2022-12-01T03:12:59.000Z,1.21
2022-12-01T03:13:59.000Z,1.24
2022-12-01T03:14:59.000Z,1.24
2022-12-01T03:15:59.000Z,1.24
2022-12-01T03:16:59.000Z,1.19
2022-12-01T03:17:59.000Z,1.21
2022-12-01T03:18:59.000Z,1.18
2022-12-01T03:19:59.000Z,1.16
2022-12-01T03:20:59.000Z,1.15
2022-12-01T03:21:59.000Z,1.14
2022-12-01T03:22:59.000Z,1.08
2022-12-01T03:23:59.000Z,1.12
2022-12-01T03:24:59.000Z,1.15
2022-12-01T03:25:59.000Z,1.14
2022-12-01T03:26:59.000Z,1.16
2022-12-01T03:27:59.000Z,1.18
2022-12-01T03:28:59.000Z,1.16
2022-12-01T03:29:59.000Z,1.19
2022-12-01T03:30:59.000Z,1.19
2022-12-01T03:31:59.000Z,1.18
2022-12-01T03:32:59.000Z,1.22
2022-12-01T03:33:59.000Z,1.21
2022-12-01T03:34:59.000Z,1.16
2022-12-01T03:35:59.000Z,1.18
2022-12-01T03:36:59.000Z,1.16
2022-12-01T03:37:59.000Z,1.15
2022-12-01T03:38:59.000Z,1.14
2022-12-01T03:39:59.000Z,1.15
2022-12-01T03:40:59.000Z,1.08
2022-12-01T03:41:59.000Z,1.06
2022-12-01T03:42:59.000Z,1.06
2022-12-01T03:43:59.000Z,1.07
2022-12-01T03:44:59.000Z,1.04
2022-12-01T03:45:59.000Z,1.06
2022-12-01T03:46:59.000Z,1.08
2022-12-01T03:47:59.000Z,1.07
2022-12-01T03:48:59.000Z,1.06
2022-12-01T03:49:59.000Z,1.00
2022-12-01T03:50:59.000Z,1.00
2022-12-01T03:51:59.000Z,1.03
2022-12-01T03:52:59.000Z,1.00
2022-12-01T03:53:59.000Z,0.97
2022-12-01T03:54:59.000Z,0.96
2022-12-01T03:55:59.000Z,0.92
2022-12-01T03:56:59.000Z,0.89
2022-12-01T03:57:59.000Z,0.94
2022-12-01T03:58:59.000Z,0.90
2022-12-01T03:59:59.000Z,0.97
2022-12-01T04:00:59.000Z,1.00
2022-12-01T04:01:59.000Z,0.96
2022-12-01T04:02:59.000Z,0.96
2022-12-01T04:03:59.000Z,0.98
2022-12-01T04:04:59.000Z,1.00
2022-12-01T04:05:59.000Z,1.01
2022-12-01T04:06:59.000Z,1.03
2022-12-01T04:07:59.000Z,1.00
2022-12-01T04:08:59.000Z,1.00
2022-12-01T04:09:59.000Z,1.00
2022-12-01T04:10:59.000Z,1.00
2022-12-01T04:11:59.000Z,1.01
2022-12-01T04:12:59.000Z,1.01
2022-12-01T04:13:59.000Z,1.01
2022-12-01T04:14:59.000Z,1.06
2022-12-01T04:15:59.000Z,1.03
2022-12-01T04:16:59.000Z,1.06
2022-12-01T04:17:59.000Z,1.04
2022-12-01T04:18:59.000Z,1.03
2022-12-01T04:19:59.000Z,1.06
2022-12-01T04:20:59.000Z,1.07
2022-12-01T04:21:59.000Z,0.98
2022-12-01T04:22:59.000Z,0.96
2022-12-01T04:23:59.000Z,0.97
2022-12-01T04:24:59.000Z,0.98
2022-12-01T04:25:59.000Z,0.98
2022-12-01T04:26:59.000Z,0.97
2022-12-01T04:27:59.000Z,1.00
2022-12-01T04:28:59.000Z,1.01
2022-12-01T04:29:59.000Z,0.98
2022-12-01T04:30:59.000Z,1.01
2022-12-01T04:31:59.000Z,1.01
2022-12-01T04:32:59.000Z,0.98
2022-12-01T04:33:59.000Z,1.04
2022-12-01T04:34:59.000Z,0.98
2022-12-01T04:35:59.000Z,0.94
2022-12-01T04:36:59.000Z,0.92
2022-12-01T04:37:59.000Z,0.92
2022-12-01T04:38:59.000Z,0.94
2022-12-01T04:39:59.000Z,0.89
2022-12-01T04:40:59.000Z,0.88
2022-12-01T04:41:59.000Z,0.86
2022-12-01T04:42:59.000Z,0.83
2022-12-01T04:43:59.000Z,0.86
2022-12-01T04:44:59.000Z,0.82
2022-12-01T04:45:59.000Z,0.82
2022-12-01T04:46:59.000Z,0.80
2022-12-01T04:47:59.000Z,0.82
2022-12-01T04:48:59.000Z,0.82
2022-12-01T04:49:59.000Z,0.79
2022-12-01T04:50:59.000Z,0.80
2022-12-01T04:51:59.000Z,0.79
2022-12-01T04:52:59.000Z,0.79
2022-12-01T04:53:59.000Z,0.78
2022-12-01T04:54:59.000Z,0.75
2022-12-01T04:55:59.000Z,0.78
2022-12-01T04:56:59.000Z,0.78
2022-12-01T04:57:59.000Z,0.76
2022-12-01T04:58:59.000Z,0.75
2022-12-01T04:59:59.000Z,0.76
2022-12-01T05:00:59.000Z,0.70
2022-12-01T05:01:59.000Z,0.75
2022-12-01T05:02:59.000Z,0.71
2022-12-01T05:03:59.000Z,0.70
2022-12-01T05:04:59.000Z,0.72
2022-12-01T05:05:59.000Z,0.70
2022-12-01T05:06:59.000Z,0.68
2022-12-01T05:07:59.000Z,0.67
2022-12-01T05:08:59.000Z,0.70
2022-12-01T05:10:07.000Z,0.70
2022-12-01T05:11:00.000Z,0.68
2022-12-01T05:12:00.000Z,0.68
2022-12-01T05:13:00.000Z,0.70
2022-12-01T05:14:00.000Z,0.71
2022-12-01T05:15:00.000Z,0.68
2022-12-01T05:16:00.000Z,0.70
2022-12-01T05:17:00.000Z,0.65
2022-12-01T05:18:00.000Z,0.64
2022-12-01T05:19:00.000Z,0.62
2022-12-01T05:20:00.000Z,0.53
2022-12-01T05:21:00.000Z,0.57
2022-12-01T05:22:00.000Z,0.46
2022-12-01T05:23:00.000Z,0.46
2022-12-01T05:24:00.000Z,0.42
2022-12-01T05:25:00.000Z,0.45
2022-12-01T05:26:00.000Z,0.43
2022-12-01T05:27:00.000Z,0.45
2022-12-01T05:28:00.000Z,0.41
2022-12-01T05:29:00.000Z,0.39
2022-12-01T05:30:00.000Z,0.38
2022-12-01T05:31:00.000Z,0.39
2022-12-01T05:32:00.000Z,0.41
2022-12-01T05:33:00.000Z,0.41
2022-12-01T05:34:00.000Z,0.39
2022-12-01T05:35:00.000Z,0.39
2022-12-01T05:36:00.000Z,0.39
2022-12-01T05:37:00.000Z,0.41
2022-12-01T05:38:00.000Z,0.42
2022-12-01T05:39:00.000Z,0.43
2022-12-01T05:40:00.000Z,0.43
2022-12-01T05:41:00.000Z,0.38
2022-12-01T05:42:00.000Z,0.38
2022-12-01T05:43:00.000Z,0.42
2022-12-01T05:44:00.000Z,0.43
2022-12-01T05:45:00.000Z,0.38
2022-12-01T05:46:00.000Z,0.39
2022-12-01T05:47:00.000Z,0.38
2022-12-01T05:48:00.000Z,0.41
2022-12-01T05:49:00.000Z,0.43
2022-12-01T05:50:00.000Z,0.41
2022-12-01T05:51:00.000Z,0.41
2022-12-01T05:52:00.000Z,0.43
2022-12-01T05:53:00.000Z,0.42
2022-12-01T05:54:00.000Z,0.43
2022-12-01T05:55:00.000Z,0.46
2022-12-01T05:56:00.000Z,0.43
2022-12-01T05:57:00.000Z,0.43
2022-12-01T05:58:00.000Z,0.42
2022-12-01T05:59:00.000Z,0.39
2022-12-01T06:00:00.000Z,0.34
2022-12-01T06:01:00.000Z,0.39
2022-12-01T06:02:00.000Z,0.36
2022-12-01T06:03:00.000Z,0.42
2022-12-01T06:04:00.000Z,0.43
2022-12-01T06:05:00.000Z,0.42
2022-12-01T06:06:00.000Z,0.39
2022-12-01T06:07:00.000Z,0.41
2022-12-01T06:08:00.000Z,0.36
2022-12-01T06:09:00.000Z,0.34
2022-12-01T06:10:00.000Z,0.41
2022-12-01T06:11:00.000Z,0.39
2022-12-01T06:12:00.000Z,0.36
2022-12-01T06:13:00.000Z,0.39
2022-12-01T06:14:00.000Z,0.38
2022-12-01T06:15:00.000Z,0.41
2022-12-01T06:16:00.000Z,0.42
2022-12-01T06:17:00.000Z,0.43
2022-12-01T06:18:00.000Z,0.41
2022-12-01T06:19:00.000Z,0.41
2022-12-01T06:20:00.000Z,0.45
2022-12-01T06:21:00.000Z,0.42
2022-12-01T06:22:00.000Z,0.42
2022-12-01T06:23:00.000Z,0.42
2022-12-01T06:24:00.000Z,0.45
2022-12-01T06:25:00.000Z,0.48
2022-12-01T06:26:00.000Z,0.43
2022-12-01T06:27:01.000Z,0.46
2022-12-01T06:28:01.000Z,0.45
2022-12-01T06:29:01.000Z,0.48
2022-12-01T06:30:01.000Z,0.48
2022-12-01T06:31:01.000Z,0.49
2022-12-01T06:32:01.000Z,0.45
2022-12-01T06:33:01.000Z,0.48
2022-12-01T06:34:01.000Z,0.48
2022-12-01T06:35:01.000Z,0.46
2022-12-01T06:36:01.000Z,0.49
2022-12-01T06:37:01.000Z,0.49
2022-12-01T06:38:01.000Z,0.46
2022-12-01T06:39:01.000Z,0.52
2022-12-01T06:40:01.000Z,0.48
2022-12-01T06:41:01.000Z,0.43
2022-12-01T06:42:01.000Z,0.46
2022-12-01T06:43:01.000Z,0.45
2022-12-01T06:44:01.000Z,0.45
2022-12-01T06:45:01.000Z,0.46
2022-12-01T06:46:01.000Z,0.43
2022-12-01T06:47:01.000Z,0.45
2022-12-01T06:48:01.000Z,0.46
2022-12-01T06:49:01.000Z,0.46
2022-12-01T06:50:01.000Z,0.48
2022-12-01T06:51:01.000Z,0.46
2022-12-01T06:52:01.000Z,0.46
2022-12-01T06:53:01.000Z,0.45
2022-12-01T06:54:01.000Z,0.45
2022-12-01T06:55:01.000Z,0.41
2022-12-01T06:56:01.000Z,0.41
2022-12-01T06:57:01.000Z,0.39
2022-12-01T06:58:01.000Z,0.39
2022-12-01T06:59:01.000Z,0.34
2022-12-01T07:00:01.000Z,0.38
2022-12-01T07:01:01.000Z,0.36
2022-12-01T07:02:01.000Z,0.31
2022-12-01T07:03:01.000Z,0.31
2022-12-01T07:04:01.000Z,0.27
2022-12-01T07:05:01.000Z,0.28
2022-12-01T07:06:01.000Z,0.30
2022-12-01T07:07:01.000Z,0.27
2022-12-01T07:08:01.000Z,0.31
2022-12-01T07:09:01.000Z,0.31
2022-12-01T07:10:01.000Z,0.33
2022-12-01T07:11:01.000Z,0.36
2022-12-01T07:12:01.000Z,0.36
2022-12-01T07:13:01.000Z,0.41
2022-12-01T07:14:01.000Z,0.39
2022-12-01T07:15:01.000Z,0.41
2022-12-01T07:16:01.000Z,0.36
2022-12-01T07:17:01.000Z,0.31
2022-12-01T07:18:01.000Z,0.33
2022-12-01T07:19:01.000Z,0.28
2022-12-01T07:20:01.000Z,0.28
2022-12-01T07:21:01.000Z,0.24
2022-12-01T07:22:01.000Z,0.27
2022-12-01T07:23:01.000Z,0.27
2022-12-01T07:24:01.000Z,0.24
2022-12-01T07:25:01.000Z,0.23
2022-12-01T07:26:01.000Z,0.21
2022-12-01T07:27:01.000Z,0.23
2022-12-01T07:28:01.000Z,0.24
2022-12-01T07:29:01.000Z,0.25
2022-12-01T07:30:01.000Z,0.27
2022-12-01T07:31:01.000Z,0.30
2022-12-01T07:32:01.000Z,0.30
2022-12-01T07:33:01.000Z,0.30
2022-12-01T07:34:01.000Z,0.31
2022-12-01T07:35:01.000Z,0.27
2022-12-01T07:36:01.000Z,0.24
2022-12-01T07:37:01.000Z,0.25
2022-12-01T07:38:01.000Z,0.27
2022-12-01T07:39:01.000Z,0.25
2022-12-01T07:40:01.000Z,0.27
2022-12-01T07:41:01.000Z,0.25
2022-12-01T07:42:01.000Z,0.28
2022-12-01T07:43:02.000Z,0.31
2022-12-01T07:44:02.000Z,0.34
2022-12-01T07:45:02.000Z,0.36
2022-12-01T07:46:02.000Z,0.30
2022-12-01T07:47:02.000Z,0.33
2022-12-01T07:48:02.000Z,0.33
2022-12-01T07:49:02.000Z,0.33
2022-12-01T07:50:02.000Z,0.30
2022-12-01T07:51:02.000Z,0.31
2022-12-01T07:52:02.000Z,0.34
2022-12-01T07:53:02.000Z,0.34
2022-12-01T07:54:02.000Z,0.31
2022-12-01T07:55:02.000Z,0.34
2022-12-01T07:56:02.000Z,0.33
2022-12-01T07:57:02.000Z,0.33
2022-12-01T07:58:02.000Z,0.31
2022-12-01T07:59:02.000Z,0.38
2022-12-01T08:00:02.000Z,0.36
2022-12-01T08:01:02.000Z,0.31
2022-12-01T08:02:02.000Z,0.34
2022-12-01T08:03:02.000Z,0.33
2022-12-01T08:04:02.000Z,0.36
2022-12-01T08:05:02.000Z,0.33
2022-12-01T08:06:02.000Z,0.38
2022-12-01T08:07:02.000Z,0.38
2022-12-01T08:08:02.000Z,0.39
2022-12-01T08:09:02.000Z,0.41
2022-12-01T08:10:02.000Z,0.41
2022-12-01T08:11:02.000Z,0.42
2022-12-01T08:12:02.000Z,0.41
2022-12-01T08:13:02.000Z,0.38
2022-12-01T08:14:02.000Z,0.45
2022-12-01T08:15:02.000Z,0.43
2022-12-01T08:16:02.000Z,0.43
2022-12-01T08:17:02.000Z,0.45
2022-12-01T08:18:02.000Z,0.43
2022-12-01T08:19:02.000Z,0.42
2022-12-01T08:20:02.000Z,0.38
2022-12-01T08:21:02.000Z,0.39
2022-12-01T08:22:02.000Z,0.42
2022-12-01T08:23:02.000Z,0.43
2022-12-01T08:24:02.000Z,0.45
2022-12-01T08:25:02.000Z,0.43
2022-12-01T08:26:02.000Z,0.45
2022-12-01T08:27:02.000Z,0.43
2022-12-01T08:28:02.000Z,0.42
2022-12-01T08:29:02.000Z,0.42
2022-12-01T08:30:02.000Z,0.41
2022-12-01T08:31:02.000Z,0.39
2022-12-01T08:32:02.000Z,0.41
2022-12-01T08:33:02.000Z,0.36
2022-12-01T08:34:02.000Z,0.36
2022-12-01T08:35:02.000Z,0.38
2022-12-01T08:36:02.000Z,0.38
2022-12-01T08:37:02.000Z,0.41
2022-12-01T08:38:03.000Z,0.41
2022-12-01T08:39:03.000Z,0.42
2022-12-01T08:40:03.000Z,0.42
2022-12-01T08:41:03.000Z,0.42
2022-12-01T08:42:03.000Z,0.45
2022-12-01T08:43:03.000Z,0.45
2022-12-01T08:44:03.000Z,0.42
2022-12-01T08:45:03.000Z,0.45
2022-12-01T08:46:03.000Z,0.42
2022-12-01T08:47:03.000Z,0.41
2022-12-01T08:48:03.000Z,0.41
2022-12-01T08:49:03.000Z,0.42
2022-12-01T08:50:03.000Z,0.43
2022-12-01T08:51:03.000Z,0.46
2022-12-01T08:52:03.000Z,0.43
2022-12-01T08:53:03.000Z,0.45
2022-12-01T08:54:03.000Z,0.49
2022-12-01T08:55:03.000Z,0.48
2022-12-01T08:56:03.000Z,0.46
2022-12-01T08:57:03.000Z,0.46
2022-12-01T08:58:03.000Z,0.46
2022-12-01T08:59:03.000Z,0.45
2022-12-01T09:00:03.000Z,0.51
2022-12-01T09:01:03.000Z,0.45
2022-12-01T09:02:03.000Z,0.48
2022-12-01T09:03:03.000Z,0.49
2022-12-01T09:04:03.000Z,0.52
2022-12-01T09:05:03.000Z,0.57
2022-12-01T09:06:03.000Z,0.61
2022-12-01T09:07:03.000Z,0.65
2022-12-01T09:08:03.000Z,0.61
2022-12-01T09:09:03.000Z,0.62
2022-12-01T09:10:03.000Z,0.64
2022-12-01T09:11:03.000Z,0.64
2022-12-01T09:12:03.000Z,0.64
2022-12-01T09:13:03.000Z,0.61
2022-12-01T09:14:03.000Z,0.65
2022-12-01T09:15:03.000Z,0.65
2022-12-01T09:16:03.000Z,0.65
2022-12-01T09:17:03.000Z,0.65
2022-12-01T09:18:03.000Z,0.71
2022-12-01T09:19:03.000Z,0.72
2022-12-01T09:20:03.000Z,0.70
2022-12-01T09:21:03.000Z,0.67
2022-12-01T09:22:03.000Z,0.68
2022-12-01T09:23:03.000Z,0.68
2022-12-01T09:24:03.000Z,0.71
2022-12-01T09:25:03.000Z,0.71
2022-12-01T09:26:03.000Z,0.71
2022-12-01T09:27:03.000Z,0.68
2022-12-01T09:28:03.000Z,0.72
2022-12-01T09:29:03.000Z,0.70
2022-12-01T09:30:03.000Z,0.68
2022-12-01T09:31:03.000Z,0.68
2022-12-01T09:32:03.000Z,0.70
2022-12-01T09:33:03.000Z,0.68
2022-12-01T09:34:03.000Z,0.72
2022-12-01T09:35:03.000Z,0.72
2022-12-01T09:36:03.000Z,0.71
2022-12-01T09:37:03.000Z,0.72
2022-12-01T09:38:03.000Z,0.71
2022-12-01T09:39:03.000Z,0.70
2022-12-01T09:40:03.000Z,0.70
2022-12-01T09:41:03.000Z,0.75
2022-12-01T09:42:03.000Z,0.71
2022-12-01T09:43:03.000Z,0.72
2022-12-01T09:44:03.000Z,0.76
2022-12-01T09:45:03.000Z,0.80
2022-12-01T09:46:03.000Z,0.78
2022-12-01T09:47:03.000Z,0.80
2022-12-01T09:48:03.000Z,0.82
2022-12-01T09:49:03.000Z,0.83
2022-12-01T09:50:03.000Z,0.86
2022-12-01T09:51:03.000Z,0.83
2022-12-01T09:52:03.000Z,0.83
2022-12-01T09:53:03.000Z,0.88
2022-12-01T09:54:03.000Z,0.90
2022-12-01T09:55:03.000Z,0.90
2022-12-01T09:56:03.000Z,0.90
2022-12-01T09:57:03.000Z,0.90
2022-12-01T09:58:03.000Z,0.86
2022-12-01T09:59:03.000Z,0.88
2022-12-01T10:00:03.000Z,0.83
2022-12-01T10:01:03.000Z,0.82
2022-12-01T10:02:03.000Z,0.79
2022-12-01T10:03:04.000Z,0.82
2022-12-01T10:04:04.000Z,0.79
2022-12-01T10:05:04.000Z,0.75
2022-12-01T10:06:04.000Z,0.68
2022-12-01T10:07:04.000Z,0.70
2022-12-01T10:08:04.000Z,0.65
2022-12-01T10:09:04.000Z,0.61
2022-12-01T10:10:04.000Z,0.64
2022-12-01T10:11:04.000Z,0.61
2022-12-01T10:12:04.000Z,0.60
2022-12-01T10:13:04.000Z,0.57
2022-12-01T10:14:04.000Z,0.60
2022-12-01T10:15:04.000Z,0.52
2022-12-01T10:16:04.000Z,0.52
2022-12-01T10:17:04.000Z,0.57
2022-12-01T10:18:04.000Z,0.60
2022-12-01T10:19:04.000Z,0.61
2022-12-01T10:20:04.000Z,0.57
2022-12-01T10:21:04.000Z,0.58
2022-12-01T10:22:04.000Z,0.61
2022-12-01T10:23:04.000Z,0.64
2022-12-01T10:24:04.000Z,0.53
2022-12-01T10:25:04.000Z,0.53
2022-12-01T10:26:04.000Z,0.53
2022-12-01T10:27:04.000Z,0.57
2022-12-01T10:28:04.000Z,0.60
2022-12-01T10:29:04.000Z,0.62
2022-12-01T10:30:04.000Z,0.65
2022-12-01T10:31:04.000Z,0.67
2022-12-01T10:32:04.000Z,0.68
2022-12-01T10:33:04.000Z,0.65
2022-12-01T10:34:04.000Z,0.71
2022-12-01T10:35:04.000Z,0.65
2022-12-01T10:36:04.000Z,0.67
2022-12-01T10:37:04.000Z,0.75
2022-12-01T10:38:04.000Z,0.78
2022-12-01T10:39:04.000Z,0.76
2022-12-01T10:40:04.000Z,0.78
2022-12-01T10:41:04.000Z,0.78
2022-12-01T10:42:04.000Z,0.78
2022-12-01T10:43:04.000Z,0.78
2022-12-01T10:44:04.000Z,0.82
2022-12-01T10:45:04.000Z,0.76
2022-12-01T10:46:04.000Z,0.78
2022-12-01T10:47:04.000Z,0.75
2022-12-01T10:48:04.000Z,0.71
2022-12-01T10:49:04.000Z,0.68
2022-12-01T10:50:04.000Z,0.68
2022-12-01T10:51:04.000Z,0.64
2022-12-01T10:52:04.000Z,0.67
2022-12-01T10:53:04.000Z,0.68
2022-12-01T10:54:04.000Z,0.70
2022-12-01T10:55:04.000Z,0.70
2022-12-01T10:55:04.000Z,0.70
2022-12-01T10:56:04.000Z,0.68
2022-12-01T10:56:04.000Z,0.68
2022-12-01T10:57:04.000Z,0.70
2022-12-01T10:57:04.000Z,0.70
2022-12-01T10:58:04.000Z,0.70
2022-12-01T10:58:04.000Z,0.70
2022-12-01T10:59:04.000Z,0.71
2022-12-01T10:59:04.000Z,0.71
2022-12-01T11:00:04.000Z,0.76
2022-12-01T11:01:04.000Z,0.72
2022-12-01T11:02:04.000Z,0.76
2022-12-01T11:03:04.000Z,0.76
2022-12-01T11:04:04.000Z,0.78
2022-12-01T11:05:04.000Z,0.80
2022-12-01T11:06:04.000Z,0.78
2022-12-01T11:07:04.000Z,0.76
2022-12-01T11:08:04.000Z,0.79
2022-12-01T11:09:04.000Z,0.78
2022-12-01T11:10:04.000Z,0.78
2022-12-01T11:11:04.000Z,0.79
2022-12-01T11:12:04.000Z,0.78
2022-12-01T11:13:04.000Z,0.79
2022-12-01T11:14:04.000Z,0.79
2022-12-01T11:15:04.000Z,0.78
2022-12-01T11:16:04.000Z,0.75
2022-12-01T11:17:04.000Z,0.78
2022-12-01T11:18:04.000Z,0.82
2022-12-01T11:19:04.000Z,0.79
2022-12-01T11:20:04.000Z,0.79
2022-12-01T11:21:04.000Z,0.80
2022-12-01T11:22:04.000Z,0.82
2022-12-01T11:23:04.000Z,0.80
2022-12-01T11:24:04.000Z,0.80
2022-12-01T11:25:04.000Z,0.82
2022-12-01T11:26:04.000Z,0.85
2022-12-01T11:27:04.000Z,0.79
2022-12-01T11:28:04.000Z,0.78
2022-12-01T11:29:04.000Z,0.76
2022-12-01T11:30:04.000Z,0.76
2022-12-01T11:31:04.000Z,0.75
2022-12-01T11:32:04.000Z,0.72
2022-12-01T11:33:04.000Z,0.76
2022-12-01T11:34:04.000Z,0.76
2022-12-01T11:35:04.000Z,0.78
2022-12-01T11:36:04.000Z,0.82
2022-12-01T11:37:05.000Z,0.78
2022-12-01T11:38:05.000Z,0.78
2022-12-01T11:39:05.000Z,0.75
2022-12-01T11:40:05.000Z,0.75
2022-12-01T11:41:05.000Z,0.72
2022-12-01T11:42:05.000Z,0.71
2022-12-01T11:43:05.000Z,0.68
2022-12-01T11:44:05.000Z,0.70
2022-12-01T11:45:05.000Z,0.72
2022-12-01T11:46:05.000Z,0.71
2022-12-01T11:47:05.000Z,0.80
2022-12-01T11:48:05.000Z,0.83
2022-12-01T11:49:05.000Z,0.80
2022-12-01T11:50:05.000Z,0.88
2022-12-01T11:51:05.000Z,0.88
2022-12-01T11:52:05.000Z,0.89
2022-12-01T11:53:05.000Z,0.94
2022-12-01T11:54:05.000Z,0.90
2022-12-01T11:55:05.000Z,0.92
2022-12-01T11:56:05.000Z,0.90
2022-12-01T11:57:05.000Z,0.86
2022-12-01T11:58:05.000Z,0.88
2022-12-01T11:59:05.000Z,0.89
2022-12-01T12:00:05.000Z,0.90
2022-12-01T12:01:05.000Z,0.94
2022-12-01T12:02:05.000Z,0.90
2022-12-01T12:03:05.000Z,0.90
2022-12-01T12:04:05.000Z,0.96
2022-12-01T12:05:05.000Z,0.92
2022-12-01T12:06:05.000Z,0.97
2022-12-01T12:07:05.000Z,0.96
2022-12-01T12:08:05.000Z,0.96
2022-12-01T12:09:05.000Z,0.94
2022-12-01T12:10:05.000Z,0.97
2022-12-01T12:11:05.000Z,0.92
2022-12-01T12:12:05.000Z,0.94
2022-12-01T12:13:05.000Z,0.90
2022-12-01T12:14:05.000Z,0.90
2022-12-01T12:15:05.000Z,0.88
2022-12-01T12:16:05.000Z,0.86
2022-12-01T12:17:05.000Z,0.83
2022-12-01T12:18:05.000Z,0.85
2022-12-01T12:19:05.000Z,0.80
2022-12-01T12:20:05.000Z,0.82
2022-12-01T12:21:05.000Z,0.85
2022-12-01T12:22:05.000Z,0.80
2022-12-01T12:23:05.000Z,0.80
2022-12-01T12:24:05.000Z,0.83
2022-12-01T12:25:05.000Z,0.85
2022-12-01T12:26:05.000Z,0.88
2022-12-01T12:27:05.000Z,0.88
2022-12-01T12:28:05.000Z,0.89
2022-12-01T12:29:05.000Z,0.86
2022-12-01T12:30:05.000Z,0.89
2022-12-01T12:31:05.000Z,0.90
2022-12-01T12:32:05.000Z,0.92
2022-12-01T12:33:05.000Z,0.94
2022-12-01T12:34:05.000Z,0.96
2022-12-01T12:35:05.000Z,0.98
2022-12-01T12:36:05.000Z,0.98
2022-12-01T12:37:05.000Z,1.04
2022-12-01T12:38:05.000Z,1.01
2022-12-01T12:39:05.000Z,1.01
2022-12-01T12:40:05.000Z,0.97
2022-12-01T12:41:05.000Z,0.96
2022-12-01T12:42:05.000Z,0.94
2022-12-01T12:43:05.000Z,0.90
2022-12-01T12:44:05.000Z,0.92
2022-12-01T12:45:05.000Z,0.92
2022-12-01T12:46:05.000Z,0.89
2022-12-01T12:47:05.000Z,0.90
2022-12-01T12:48:05.000Z,0.88
2022-12-01T12:49:05.000Z,0.88
2022-12-01T12:50:05.000Z,0.89
2022-12-01T12:51:05.000Z,0.89
2022-12-01T12:52:05.000Z,0.90
2022-12-01T12:53:05.000Z,0.89
2022-12-01T12:54:05.000Z,0.94
2022-12-01T12:55:05.000Z,0.94
2022-12-01T12:56:05.000Z,0.92
2022-12-01T12:57:05.000Z,0.92
2022-12-01T12:58:05.000Z,0.97
2022-12-01T12:59:05.000Z,0.92
2022-12-01T13:00:05.000Z,0.94
2022-12-01T13:01:05.000Z,0.97
2022-12-01T13:02:05.000Z,1.03
2022-12-01T13:03:05.000Z,1.01
2022-12-01T13:04:05.000Z,1.04
2022-12-01T13:05:05.000Z,1.01
2022-12-01T13:06:05.000Z,1.00
2022-12-01T13:07:05.000Z,1.00
2022-12-01T13:08:05.000Z,1.01
2022-12-01T13:09:05.000Z,0.96
2022-12-01T13:10:05.000Z,0.96
2022-12-01T13:11:05.000Z,0.90
2022-12-01T13:12:05.000Z,0.94
2022-12-01T13:13:05.000Z,0.94
2022-12-01T13:14:06.000Z,0.98